Time;durP1;ratioP1;P1;durP2;ratioP2;P2;SDS_P1;SDS_P2;PMS_P1;PMS_P2;Temp;Humidity;BMP_temperature;BMP_pressure;BME280_temperature;BME280_humidity;BME280_pressure;Samples;Min_cycle;Max_cycle;Signal;HPM_P1;HPM_P2
2021/09/01 00:02:07;;;;;;;23.55;14.23;;;14.80;99.90;;;;;;5027521;28;20050;-82
2021/09/01 00:04:34;;;;;;;24.27;14.40;;;14.80;99.90;;;;;;5033773;28;20050;-81
2021/09/01 00:07:03;;;;;;;22.17;14.43;;;14.80;99.90;;;;;;5033214;28;20088;-81
2021/09/01 00:09:38;;;;;;;25.75;13.20;;;14.80;99.90;;;;;;5032410;28;20069;-81
2021/09/01 00:12:09;;;;;;;23.38;13.85;;;14.80;99.90;;;;;;5033171;28;20072;-82
2021/09/01 00:14:37;;;;;;;26.42;14.00;;;14.80;99.90;;;;;;5033680;28;20082;-82
2021/09/01 00:17:04;;;;;;;29.67;13.75;;;14.80;99.90;;;;;;5033021;28;20054;-81
2021/09/01 00:19:40;;;;;;;22.25;14.02;;;14.80;99.90;;;;;;5033215;28;20033;-82
2021/09/01 00:22:17;;;;;;;24.35;14.60;;;14.90;99.90;;;;;;5034161;28;20072;-82
2021/09/01 00:24:44;;;;;;;28.30;14.43;;;14.90;99.90;;;;;;5032376;28;20045;-81
2021/09/01 00:27:13;;;;;;;27.55;14.85;;;15.00;99.90;;;;;;5032434;28;20661;-82
2021/09/01 00:29:42;;;;;;;26.55;14.60;;;15.10;99.90;;;;;;5029233;28;20049;-81
2021/09/01 00:32:09;;;;;;;28.95;14.30;;;15.10;99.90;;;;;;5027144;28;20053;-83
2021/09/01 00:34:37;;;;;;;28.60;14.77;;;15.20;99.90;;;;;;5026232;28;20046;-84
2021/09/01 00:37:05;;;;;;;34.40;15.15;;;15.30;99.90;;;;;;5026949;28;20422;-82
2021/09/01 00:39:36;;;;;;;26.38;14.20;;;15.30;99.90;;;;;;5029053;28;20061;-82
2021/09/01 00:42:04;;;;;;;27.77;14.15;;;15.40;99.90;;;;;;5028579;28;20250;-82
2021/09/01 00:44:34;;;;;;;25.70;15.52;;;15.40;99.90;;;;;;5028676;28;20568;-81
2021/09/01 00:47:00;;;;;;;25.10;15.02;;;15.50;99.90;;;;;;5028035;28;20085;-82
2021/09/01 00:49:28;;;;;;;26.98;15.20;;;15.50;99.90;;;;;;5028504;28;20137;-82
2021/09/01 00:51:56;;;;;;;28.92;15.70;;;15.60;99.90;;;;;;5030804;28;20091;-83
2021/09/01 00:54:25;;;;;;;23.85;14.23;;;15.60;99.90;;;;;;5031089;28;20076;-82
2021/09/01 00:56:54;;;;;;;31.88;15.15;;;15.60;99.90;;;;;;5032749;28;20050;-83
2021/09/01 00:59:23;;;;;;;27.70;14.48;;;15.60;99.90;;;;;;5031022;28;20065;-83
2021/09/01 01:01:51;;;;;;;30.05;15.50;;;15.60;99.90;;;;;;5032448;28;20050;-82
2021/09/01 01:04:19;;;;;;;27.55;15.20;;;15.60;99.90;;;;;;5032528;28;20065;-82
2021/09/01 01:06:46;;;;;;;31.67;15.95;;;15.60;99.90;;;;;;5032080;28;20088;-82
2021/09/01 01:09:13;;;;;;;29.80;15.10;;;15.70;99.90;;;;;;5031824;28;20054;-83
2021/09/01 01:11:58;;;;;;;26.35;14.95;;;15.70;99.90;;;;;;5031051;28;20109;-83
2021/09/01 01:14:26;;;;;;;31.63;16.08;;;15.70;99.90;;;;;;5030318;28;20062;-82
2021/09/01 01:16:53;;;;;;;31.77;15.60;;;15.70;99.90;;;;;;5031905;28;20050;-82
2021/09/01 01:19:21;;;;;;;26.73;14.40;;;15.70;99.90;;;;;;5032122;28;20078;-81
2021/09/01 01:21:48;;;;;;;26.52;14.43;;;15.80;99.90;;;;;;5030677;28;20050;-82
2021/09/01 01:24:15;;;;;;;29.85;15.15;;;15.80;99.90;;;;;;5028843;28;20426;-81
2021/09/01 01:26:44;;;;;;;25.88;14.80;;;15.80;99.90;;;;;;5027628;28;20137;-81
2021/09/01 01:29:12;;;;;;;29.52;14.90;;;15.80;99.90;;;;;;5027935;28;20109;-82
2021/09/01 01:31:39;;;;;;;28.13;15.77;;;15.80;99.90;;;;;;5028097;28;20089;-83
2021/09/01 01:34:13;;;;;;;24.23;14.82;;;15.80;99.90;;;;;;5029200;28;20062;-80
2021/09/01 01:36:40;;;;;;;29.90;14.50;;;15.90;99.90;;;;;;5030928;28;20077;-82
2021/09/01 01:39:07;;;;;;;27.52;14.93;;;15.90;99.90;;;;;;5031202;28;20065;-80
2021/09/01 01:41:34;;;;;;;23.90;14.18;;;15.90;99.90;;;;;;5030744;28;20077;-82
2021/09/01 01:44:03;;;;;;;26.95;14.15;;;15.90;99.90;;;;;;5032046;28;20085;-84
2021/09/01 01:46:29;;;;;;;27.83;14.93;;;15.90;99.90;;;;;;5031517;28;20053;-83
2021/09/01 01:48:56;;;;;;;29.02;14.45;;;15.90;99.90;;;;;;5031870;28;20057;-83
2021/09/01 01:51:23;;;;;;;25.50;14.63;;;15.80;99.90;;;;;;5030447;28;20080;-83
2021/09/01 01:53:50;;;;;;;26.40;14.25;;;15.80;99.90;;;;;;5031988;28;20037;-82
2021/09/01 01:56:17;;;;;;;32.35;14.20;;;15.80;99.90;;;;;;5034737;28;20041;-82
2021/09/01 01:58:44;;;;;;;25.52;14.25;;;15.70;99.90;;;;;;5036959;28;20037;-83
2021/09/01 02:01:12;;;;;;;29.25;15.00;;;15.70;99.90;;;;;;5028101;28;20085;-82
2021/09/01 02:03:39;;;;;;;23.60;13.85;;;15.70;99.90;;;;;;5026151;28;20109;-82
2021/09/01 02:06:06;;;;;;;23.45;13.88;;;15.70;99.90;;;;;;5025423;28;20105;-84
2021/09/01 02:08:32;;;;;;;26.02;14.77;;;15.80;99.90;;;;;;5023597;28;20096;-81
2021/09/01 02:10:59;;;;;;;24.05;13.50;;;15.80;99.90;;;;;;5024067;28;20080;-81
2021/09/01 02:13:26;;;;;;;25.27;14.05;;;15.80;99.90;;;;;;5021378;28;20228;-81
2021/09/01 02:15:53;;;;;;;24.23;14.02;;;15.80;99.90;;;;;;5017831;28;20080;-81
2021/09/01 02:18:21;;;;;;;26.77;12.95;;;15.80;99.90;;;;;;5020208;28;20109;-82
2021/09/01 02:20:48;;;;;;;26.35;13.70;;;15.80;99.90;;;;;;5030424;28;20050;-82
2021/09/01 02:23:15;;;;;;;27.80;14.20;;;15.80;99.90;;;;;;5029703;28;20326;-82
2021/09/01 02:25:41;;;;;;;27.48;13.77;;;15.90;99.90;;;;;;5028449;28;20046;-82
2021/09/01 02:28:08;;;;;;;23.00;14.18;;;15.90;99.90;;;;;;5028585;28;20077;-82
2021/09/01 02:30:35;;;;;;;29.13;14.15;;;15.90;99.90;;;;;;5028841;28;20080;-82
2021/09/01 02:33:02;;;;;;;23.75;14.52;;;15.90;99.90;;;;;;5027129;28;20085;-81
2021/09/01 02:35:30;;;;;;;27.98;14.13;;;15.90;99.90;;;;;;5026552;28;20399;-82
2021/09/01 02:37:57;;;;;;;23.95;13.18;;;15.90;99.90;;;;;;5027420;28;20149;-81
2021/09/01 02:40:24;;;;;;;23.40;14.63;;;15.90;99.90;;;;;;5027640;28;20074;-81
2021/09/01 02:42:51;;;;;;;24.50;13.70;;;15.90;99.90;;;;;;5027942;28;20058;-82
2021/09/01 02:45:18;;;;;;;25.48;14.18;;;15.90;99.90;;;;;;5027603;28;20077;-82
2021/09/01 02:47:46;;;;;;;24.80;13.40;;;15.90;99.90;;;;;;5029701;28;20077;-81
2021/09/01 02:50:14;;;;;;;23.13;13.55;;;15.90;99.90;;;;;;5030052;28;20089;-81
2021/09/01 02:52:42;;;;;;;20.13;12.27;;;15.90;99.90;;;;;;5029115;28;20081;-83
2021/09/01 02:55:10;;;;;;;28.90;14.23;;;15.90;99.90;;;;;;5027354;28;20074;-82
2021/09/01 02:57:37;;;;;;;23.85;13.82;;;15.90;99.90;;;;;;5029733;28;20088;-82
2021/09/01 03:00:05;;;;;;;23.10;13.15;;;16.00;99.90;;;;;;5030538;28;20056;-82
2021/09/01 03:02:32;;;;;;;22.15;13.10;;;16.00;99.90;;;;;;5029802;28;20089;-83
2021/09/01 03:04:59;;;;;;;27.13;13.48;;;16.00;99.90;;;;;;5033604;28;20279;-82
2021/09/01 03:07:26;;;;;;;27.95;14.23;;;16.00;99.90;;;;;;5032905;28;20085;-82
2021/09/01 03:09:54;;;;;;;28.95;14.15;;;16.00;99.90;;;;;;5034075;28;20167;-82
2021/09/01 03:12:21;;;;;;;24.58;13.15;;;16.00;99.90;;;;;;5034106;28;20057;-83
2021/09/01 03:14:48;;;;;;;20.48;12.55;;;16.00;99.90;;;;;;5029993;28;20053;-83
2021/09/01 03:17:15;;;;;;;21.23;12.85;;;16.00;99.90;;;;;;5028631;28;20073;-82
2021/09/01 03:19:41;;;;;;;19.52;13.02;;;16.00;99.90;;;;;;5031102;28;20092;-82
2021/09/01 03:22:08;;;;;;;20.88;11.75;;;16.00;99.90;;;;;;5031324;28;20053;-81
2021/09/01 03:24:35;;;;;;;25.33;11.85;;;16.00;99.90;;;;;;5030740;28;20127;-82
2021/09/01 03:27:04;;;;;;;26.15;13.93;;;16.00;99.90;;;;;;5030495;28;20052;-80
2021/09/01 03:29:31;;;;;;;23.20;12.45;;;16.00;99.90;;;;;;5026522;28;20085;-80
2021/09/01 03:31:58;;;;;;;22.85;12.68;;;16.00;99.90;;;;;;5026642;28;20552;-81
2021/09/01 03:34:25;;;;;;;18.45;12.38;;;16.00;99.90;;;;;;5029800;28;20049;-81
2021/09/01 03:36:52;;;;;;;22.52;12.38;;;16.00;99.90;;;;;;5028269;28;20082;-81
2021/09/01 03:39:19;;;;;;;19.88;12.30;;;15.90;99.90;;;;;;5030524;28;20057;-81
2021/09/01 03:41:46;;;;;;;27.42;13.57;;;15.90;99.90;;;;;;5029660;28;20061;-81
2021/09/01 03:44:14;;;;;;;22.98;12.95;;;15.90;99.90;;;;;;5029816;28;20088;-80
2021/09/01 03:46:41;;;;;;;22.95;11.93;;;15.90;99.90;;;;;;5031372;28;20046;-81
2021/09/01 03:49:08;;;;;;;23.42;12.35;;;15.90;99.90;;;;;;5030475;28;20088;-81
2021/09/01 03:51:35;;;;;;;23.70;12.30;;;15.90;99.90;;;;;;5031137;28;20092;-81
2021/09/01 03:54:02;;;;;;;19.60;12.13;;;15.90;99.90;;;;;;5032168;28;20060;-81
2021/09/01 03:56:29;;;;;;;20.27;12.40;;;15.90;99.90;;;;;;5032704;28;20089;-82
2021/09/01 03:58:56;;;;;;;22.00;12.40;;;16.00;99.90;;;;;;5032465;28;20049;-81
2021/09/01 04:01:24;;;;;;;21.73;11.90;;;16.00;99.90;;;;;;5035079;28;20053;-82
2021/09/01 04:03:51;;;;;;;20.83;11.98;;;16.00;99.90;;;;;;5035013;28;20098;-82
2021/09/01 04:06:17;;;;;;;21.52;11.48;;;16.00;99.90;;;;;;5035641;28;20049;-82
2021/09/01 04:08:44;;;;;;;22.33;11.80;;;16.00;99.90;;;;;;5034380;28;20085;-82
2021/09/01 04:11:11;;;;;;;26.95;13.02;;;16.00;99.90;;;;;;5035996;28;20046;-83
2021/09/01 04:13:38;;;;;;;21.75;11.85;;;16.00;99.90;;;;;;5035444;28;20053;-83
2021/09/01 04:16:05;;;;;;;22.88;11.25;;;16.00;99.90;;;;;;5035926;28;20050;-84
2021/09/01 04:18:33;;;;;;;19.60;11.75;;;16.00;99.90;;;;;;5036059;28;20045;-82
2021/09/01 04:21:03;;;;;;;23.73;11.93;;;16.00;99.90;;;;;;5035913;28;20522;-84
2021/09/01 04:23:30;;;;;;;17.48;11.30;;;16.00;99.90;;;;;;5034717;28;20060;-85
2021/09/01 04:25:57;;;;;;;20.67;11.50;;;15.90;99.90;;;;;;5032542;28;20050;-82
2021/09/01 04:28:24;;;;;;;25.67;11.82;;;15.90;99.90;;;;;;5033303;28;20077;-83
2021/09/01 04:30:51;;;;;;;20.98;11.30;;;15.90;99.90;;;;;;5033044;28;20085;-82
2021/09/01 04:33:17;;;;;;;19.00;11.52;;;15.90;99.90;;;;;;5033076;28;20510;-82
2021/09/01 04:35:46;;;;;;;17.85;11.32;;;15.90;99.90;;;;;;5032849;28;20060;-83
2021/09/01 04:38:13;;;;;;;22.25;11.95;;;15.90;99.90;;;;;;5033169;28;20073;-82
2021/09/01 04:40:40;;;;;;;24.10;11.80;;;15.90;99.90;;;;;;5031800;28;20056;-81
2021/09/01 04:43:06;;;;;;;19.13;12.15;;;15.90;99.90;;;;;;5035779;28;20049;-80
2021/09/01 04:45:33;;;;;;;23.52;11.80;;;15.90;99.90;;;;;;5033578;28;20038;-82
2021/09/01 04:48:00;;;;;;;19.98;11.38;;;15.90;99.90;;;;;;5031033;28;20108;-83
2021/09/01 04:50:27;;;;;;;20.02;11.27;;;15.90;99.90;;;;;;5030708;28;20050;-82
2021/09/01 04:52:56;;;;;;;20.00;11.73;;;15.80;99.90;;;;;;5030926;28;20077;-82
2021/09/01 04:55:22;;;;;;;21.35;11.88;;;15.90;99.90;;;;;;5031495;28;20073;-82
2021/09/01 04:57:49;;;;;;;22.05;12.25;;;15.80;99.90;;;;;;5034360;28;20045;-83
2021/09/01 05:00:16;;;;;;;22.20;11.60;;;15.80;99.90;;;;;;5033694;28;20081;-83
2021/09/01 05:02:43;;;;;;;20.35;11.52;;;15.80;99.90;;;;;;5033331;28;20049;-83
2021/09/01 05:05:11;;;;;;;22.85;11.90;;;15.80;99.90;;;;;;5032559;28;20085;-84
2021/09/01 05:07:38;;;;;;;25.02;12.73;;;15.90;99.90;;;;;;5027358;28;20046;-84
2021/09/01 05:10:07;;;;;;;18.55;12.02;;;15.90;99.90;;;;;;5033645;28;20046;-82
2021/09/01 05:12:34;;;;;;;22.15;11.80;;;15.90;99.90;;;;;;5031560;28;20085;-81
2021/09/01 05:15:01;;;;;;;21.55;12.30;;;15.90;99.90;;;;;;5028154;28;20054;-83
2021/09/01 05:17:28;;;;;;;25.85;12.90;;;16.00;99.90;;;;;;5029455;28;20073;-81
2021/09/01 05:19:55;;;;;;;21.08;12.25;;;16.00;99.90;;;;;;5029865;28;20072;-83
2021/09/01 05:22:24;;;;;;;26.08;13.93;;;16.00;99.90;;;;;;5030932;28;20080;-82
2021/09/01 05:25:00;;;;;;;22.58;13.82;;;16.00;99.90;;;;;;5010866;28;20042;-82
2021/09/01 05:27:32;;;;;;;27.52;15.32;;;16.00;99.90;;;;;;4986347;28;20507;-82
2021/09/01 05:30:00;;;;;;;27.75;14.43;;;16.00;99.90;;;;;;5014390;28;20070;-83
2021/09/01 05:32:28;;;;;;;26.88;14.50;;;16.00;99.90;;;;;;5022727;28;20052;-84
2021/09/01 05:34:57;;;;;;;24.63;14.75;;;16.00;99.90;;;;;;5022581;28;20171;-83
2021/09/01 05:37:25;;;;;;;26.13;14.88;;;16.00;99.90;;;;;;5009692;28;20107;-83
2021/09/01 05:39:59;;;;;;;29.92;15.75;;;16.00;99.90;;;;;;5008462;28;20070;-83
2021/09/01 05:46:23;;;;;;;27.45;15.07;;;16.10;99.90;;;;;;4951397;29;20055;-82
2021/09/01 05:55:18;;;;;;;30.85;16.20;;;16.10;99.90;;;;;;5004044;28;20054;-82
2021/09/01 05:57:48;;;;;;;28.75;15.68;;;16.20;99.90;;;;;;5004287;28;20182;-82
2021/09/01 06:00:17;;;;;;;26.67;15.15;;;16.20;99.90;;;;;;5014806;23;20679;-77
2021/09/01 06:02:49;;;;;;;25.00;14.02;;;16.30;99.90;;;;;;4996342;28;20496;-77
2021/09/01 06:05:17;;;;;;;20.52;14.35;;;16.30;99.90;;;;;;4997422;28;20100;-77
2021/09/01 06:07:51;;;;;;;23.52;13.35;;;16.40;99.90;;;;;;5009610;28;20050;-77
2021/09/01 06:10:22;;;;;;;21.73;13.55;;;16.30;99.90;;;;;;4993308;28;20506;-77
2021/09/01 06:12:54;;;;;;;25.45;14.13;;;16.30;99.90;;;;;;4993007;28;20052;-77
2021/09/01 06:15:22;;;;;;;21.30;14.80;;;16.30;99.90;;;;;;4992130;28;20430;-77
2021/09/01 06:17:49;;;;;;;22.58;14.07;;;16.40;99.90;;;;;;4993440;28;20105;-76
2021/09/01 06:20:16;;;;;;;23.40;14.15;;;16.40;99.90;;;;;;4993779;28;20132;-76
2021/09/01 06:22:43;;;;;;;21.95;13.82;;;16.40;99.90;;;;;;4993880;28;20414;-75
2021/09/01 06:25:10;;;;;;;23.98;14.80;;;16.40;99.90;;;;;;4993744;28;20101;-75
2021/09/01 06:27:37;;;;;;;20.63;14.10;;;16.50;99.90;;;;;;4994076;28;20508;-75
2021/09/01 06:30:07;;;;;;;23.80;13.73;;;16.50;99.90;;;;;;4994809;28;20136;-75
2021/09/01 06:32:34;;;;;;;23.23;13.32;;;16.50;99.90;;;;;;4995079;28;20072;-75
2021/09/01 06:35:01;;;;;;;25.10;13.75;;;16.60;99.90;;;;;;4992819;28;20085;-75
2021/09/01 06:37:28;;;;;;;26.20;12.88;;;16.60;99.90;;;;;;4993522;28;20051;-76
2021/09/01 06:39:55;;;;;;;22.40;13.35;;;16.60;99.90;;;;;;4993130;28;20082;-76
2021/09/01 06:42:22;;;;;;;21.05;12.38;;;16.60;99.90;;;;;;4992768;28;20050;-76
2021/09/01 06:44:49;;;;;;;21.95;13.90;;;16.70;99.90;;;;;;4993024;28;20480;-76
2021/09/01 06:47:17;;;;;;;20.42;12.95;;;16.70;99.90;;;;;;4992862;28;20081;-75
2021/09/01 06:49:44;;;;;;;22.17;13.80;;;16.70;99.90;;;;;;4992677;28;20133;-76
2021/09/01 06:52:13;;;;;;;23.33;13.68;;;16.80;99.90;;;;;;4992947;28;20133;-76
2021/09/01 06:54:40;;;;;;;21.77;13.75;;;16.80;99.90;;;;;;4993051;28;20076;-75
2021/09/01 06:57:07;;;;;;;23.73;13.02;;;16.80;99.90;;;;;;4993821;28;20042;-74
2021/09/01 06:59:34;;;;;;;23.17;16.23;;;16.90;99.90;;;;;;4999488;28;20045;-74
2021/09/01 07:02:01;;;;;;;34.05;18.33;;;16.90;99.90;;;;;;5000476;28;20054;-78
2021/09/01 07:04:29;;;;;;;26.40;18.17;;;17.00;99.90;;;;;;4999379;28;20042;-75
2021/09/01 07:06:56;;;;;;;29.45;17.30;;;16.90;99.90;;;;;;5009959;28;20133;-76
2021/09/01 07:09:23;;;;;;;27.98;18.25;;;16.80;99.90;;;;;;4998037;28;20133;-76
2021/09/01 07:11:49;;;;;;;27.88;16.90;;;16.80;99.90;;;;;;5006581;28;20125;-76
2021/09/01 07:14:16;;;;;;;27.02;17.38;;;16.90;99.90;;;;;;4992685;28;20108;-76
2021/09/01 07:16:43;;;;;;;28.02;16.77;;;16.90;99.90;;;;;;5006551;28;20509;-77
2021/09/01 07:19:10;;;;;;;29.63;16.65;;;17.00;99.90;;;;;;4994845;28;20130;-75
2021/09/01 07:21:38;;;;;;;25.60;14.95;;;17.00;99.90;;;;;;4998677;28;20120;-76
2021/09/01 07:24:05;;;;;;;25.75;15.25;;;16.90;99.90;;;;;;5012534;28;20144;-74
2021/09/01 07:26:32;;;;;;;24.75;15.23;;;17.00;99.90;;;;;;4999168;28;20082;-76
2021/09/01 07:28:59;;;;;;;27.65;15.75;;;17.00;99.90;;;;;;5009412;28;20132;-75
2021/09/01 07:31:27;;;;;;;30.48;15.32;;;17.10;99.90;;;;;;4999371;28;20116;-75
2021/09/01 07:33:54;;;;;;;24.20;15.15;;;17.20;99.90;;;;;;5001814;28;20129;-77
2021/09/01 07:36:21;;;;;;;25.52;15.50;;;17.20;99.90;;;;;;5001761;28;20133;-76
2021/09/01 07:38:50;;;;;;;28.48;15.90;;;17.20;99.90;;;;;;5012005;28;20073;-75
2021/09/01 07:41:17;;;;;;;24.65;15.30;;;17.30;99.90;;;;;;5012809;28;20580;-75
2021/09/01 07:43:44;;;;;;;25.58;15.70;;;17.30;99.90;;;;;;5013287;28;20086;-76
2021/09/01 07:46:11;;;;;;;27.23;15.75;;;17.30;99.90;;;;;;5012419;28;20081;-76
2021/09/01 07:48:38;;;;;;;24.73;15.65;;;17.40;99.90;;;;;;5013321;28;20081;-76
2021/09/01 07:51:05;;;;;;;26.92;15.13;;;17.50;99.90;;;;;;5016527;28;20081;-75
2021/09/01 07:53:32;;;;;;;23.92;14.38;;;17.60;99.90;;;;;;5018193;28;20054;-76
2021/09/01 07:56:00;;;;;;;24.08;15.07;;;17.60;99.90;;;;;;5018085;28;20052;-77
2021/09/01 07:58:27;;;;;;;22.73;14.57;;;17.70;99.90;;;;;;5018355;28;20462;-76
2021/09/01 08:00:54;;;;;;;24.33;14.50;;;17.70;99.90;;;;;;5017946;28;20136;-77
2021/09/01 08:03:20;;;;;;;28.92;16.00;;;17.80;99.90;;;;;;5017137;28;20088;-76
2021/09/01 08:05:47;;;;;;;26.33;14.30;;;17.80;99.90;;;;;;5017078;28;20081;-77
2021/09/01 08:08:14;;;;;;;25.65;14.50;;;17.80;99.90;;;;;;5017160;28;20101;-75
2021/09/01 08:10:41;;;;;;;23.42;13.68;;;17.80;99.90;;;;;;5016657;28;20085;-76
2021/09/01 08:13:09;;;;;;;24.02;13.70;;;17.70;99.90;;;;;;5020517;28;20085;-75
2021/09/01 08:15:36;;;;;;;23.98;13.68;;;17.70;99.90;;;;;;5017375;28;20517;-75
2021/09/01 08:18:03;;;;;;;23.35;13.82;;;17.70;99.90;;;;;;5016662;28;20046;-75
2021/09/01 08:20:30;;;;;;;23.63;14.10;;;17.60;99.90;;;;;;5016458;28;20050;-75
2021/09/01 08:22:57;;;;;;;21.42;14.13;;;17.50;99.90;;;;;;5017887;28;20528;-76
2021/09/01 08:25:24;;;;;;;25.95;15.27;;;17.40;99.90;;;;;;5014195;28;20137;-75
2021/09/01 08:27:51;;;;;;;23.80;15.43;;;17.30;99.90;;;;;;5014247;28;20056;-77
2021/09/01 08:30:19;;;;;;;23.52;14.00;;;17.30;99.90;;;;;;5014984;28;20474;-75
2021/09/01 08:32:46;;;;;;;25.30;13.05;;;17.40;99.90;;;;;;5014525;28;20497;-76
2021/09/01 08:35:13;;;;;;;22.80;14.45;;;17.40;99.90;;;;;;5015111;28;20132;-76
2021/09/01 08:37:40;;;;;;;23.58;14.40;;;17.50;99.90;;;;;;5014980;28;20145;-76
2021/09/01 08:40:09;;;;;;;23.42;12.70;;;17.60;99.90;;;;;;5015072;28;20081;-76
2021/09/01 08:42:37;;;;;;;24.70;14.10;;;17.70;99.90;;;;;;5015651;28;20132;-75
2021/09/01 08:45:05;;;;;;;18.38;13.07;;;17.60;99.90;;;;;;5015681;28;20133;-75
2021/09/01 08:47:34;;;;;;;24.27;12.32;;;17.50;99.90;;;;;;5016568;28;20078;-75
2021/09/01 08:50:04;;;;;;;23.63;13.98;;;17.50;99.90;;;;;;5016316;28;20083;-76
2021/09/01 08:52:31;;;;;;;26.65;13.38;;;17.50;99.90;;;;;;5015767;28;20046;-76
2021/09/01 08:54:58;;;;;;;21.30;12.10;;;17.50;99.90;;;;;;5016399;28;20100;-75
2021/09/01 08:57:26;;;;;;;20.02;12.27;;;17.50;99.90;;;;;;5015641;28;20137;-75
2021/09/01 08:59:53;;;;;;;26.20;12.80;;;17.60;99.90;;;;;;5016312;28;20132;-76
2021/09/01 09:02:28;;;;;;;18.85;11.77;;;17.60;99.90;;;;;;5016197;28;20081;-76
2021/09/01 09:04:56;;;;;;;19.70;10.85;;;17.80;99.90;;;;;;5017193;28;20190;-76
2021/09/01 09:07:24;;;;;;;20.27;11.45;;;17.80;99.90;;;;;;5017580;28;20137;-77
2021/09/01 09:09:59;;;;;;;22.40;11.73;;;17.70;99.90;;;;;;5016424;28;20065;-76
2021/09/01 09:12:44;;;;;;;18.58;11.45;;;17.70;99.90;;;;;;5016640;28;20432;-75
2021/09/01 09:15:17;;;;;;;21.30;11.93;;;17.70;99.90;;;;;;5017416;28;20050;-75
2021/09/01 09:24:33;;;;;;;22.05;11.43;;;17.90;99.90;;;;;;5016495;28;20583;-74
2021/09/01 09:27:42;;;;;;;22.85;12.55;;;17.90;99.90;;;;;;5014902;28;20061;-76
2021/09/01 09:30:26;;;;;;;22.08;11.05;;;17.80;99.90;;;;;;4999353;28;20049;-76
2021/09/01 09:35:57;;;;;;;22.40;12.10;;;17.90;99.90;;;;;;5016473;28;20092;-77
2021/09/01 09:38:34;;;;;;;19.17;12.63;;;18.00;99.90;;;;;;5017006;28;20049;-75
2021/09/01 09:41:09;;;;;;;18.52;12.25;;;18.00;99.90;;;;;;5016953;28;20509;-76
2021/09/01 09:43:36;;;;;;;21.48;13.15;;;17.90;99.90;;;;;;5016103;28;20057;-76
2021/09/01 09:46:13;;;;;;;23.65;12.75;;;17.70;99.90;;;;;;5015444;28;20160;-75
2021/09/01 09:48:42;;;;;;;25.88;13.05;;;17.60;99.90;;;;;;5015739;28;20046;-76
2021/09/01 09:51:13;;;;;;;22.27;13.60;;;17.60;99.90;;;;;;5016316;28;20054;-76
2021/09/01 09:53:42;;;;;;;22.73;12.93;;;17.70;99.90;;;;;;5015910;28;20045;-76
2021/09/01 09:56:17;;;;;;;21.83;12.70;;;17.70;99.90;;;;;;5015204;28;20425;-77
2021/09/01 09:58:46;;;;;;;25.27;13.85;;;17.70;99.90;;;;;;5014188;28;20046;-77
2021/09/01 10:01:16;;;;;;;20.67;14.00;;;17.70;99.90;;;;;;5014778;28;20068;-76
2021/09/01 10:03:44;;;;;;;24.80;14.32;;;17.60;99.90;;;;;;5017175;28;20054;-76
2021/09/01 10:06:14;;;;;;;22.73;13.98;;;17.60;99.90;;;;;;5014676;28;20050;-75
2021/09/01 10:08:43;;;;;;;27.02;13.43;;;17.50;99.90;;;;;;5013813;28;20078;-76
2021/09/01 10:11:13;;;;;;;22.98;13.70;;;17.60;99.90;;;;;;5013919;28;20058;-75
2021/09/01 10:13:41;;;;;;;20.92;12.93;;;17.70;99.90;;;;;;5014457;28;20050;-76
2021/09/01 10:16:15;;;;;;;23.67;13.30;;;17.70;99.90;;;;;;5014365;28;20104;-76
2021/09/01 10:18:44;;;;;;;24.75;14.75;;;17.60;99.90;;;;;;5015704;28;20046;-75
2021/09/01 10:21:13;;;;;;;29.13;15.23;;;17.40;99.90;;;;;;5015308;28;20054;-75
2021/09/01 10:23:45;;;;;;;23.50;13.90;;;17.40;99.90;;;;;;5013529;28;20046;-76
2021/09/01 10:26:32;;;;;;;27.60;16.25;;;17.50;99.90;;;;;;5013227;28;20059;-77
2021/09/01 10:29:37;;;;;;;26.33;16.27;;;17.50;99.90;;;;;;5013166;28;20101;-77
2021/09/01 10:32:29;;;;;;;27.13;15.77;;;17.50;99.90;;;;;;5013779;28;20081;-76
2021/09/01 10:35:27;;;;;;;29.20;17.30;;;17.50;99.90;;;;;;5009055;28;20359;-77
2021/09/01 10:37:55;;;;;;;22.95;14.57;;;17.50;99.90;;;;;;5012901;28;20054;-77
2021/09/01 10:40:52;;;;;;;26.70;14.65;;;17.30;99.90;;;;;;5013445;28;20490;-77
2021/09/01 10:43:21;;;;;;;31.80;17.23;;;17.30;99.90;;;;;;4996646;28;20077;-77
2021/09/01 10:45:55;;;;;;;27.00;16.20;;;17.30;99.90;;;;;;5013032;28;20493;-77
2021/09/01 10:48:26;;;;;;;26.83;14.82;;;17.30;99.90;;;;;;5014942;28;20050;-76
2021/09/01 10:50:54;;;;;;;27.15;15.90;;;17.10;99.90;;;;;;5015931;28;20085;-78
2021/09/01 10:56:46;;;;;;;24.02;15.93;;;17.20;99.90;;;;;;5013372;28;20465;-77
2021/09/01 11:00:04;;;;;;;27.50;14.52;;;17.30;99.90;;;;;;5012714;28;20049;-75
2021/09/01 11:12:44;;;;;;;21.15;14.52;;;17.90;99.90;;;;;;5011303;28;20413;-77
2021/09/01 11:18:55;;;;;;;28.55;17.05;;;18.00;99.90;;;;;;5011683;28;20069;-76
2021/09/01 11:25:19;;;;;;;31.42;19.63;;;18.20;99.90;;;;;;4954357;28;20071;-77
2021/09/01 11:34:45;;;;;;;29.15;17.67;;;18.20;99.90;;;;;;4909027;29;20117;-76
2021/09/01 11:37:39;;;;;;;34.50;21.60;;;18.20;99.90;;;;;;4956028;29;20058;-77
2021/09/01 11:50:00;;;;;;;35.65;22.45;;;18.30;99.90;;;;;;5015358;28;20037;-77
2021/09/01 11:52:30;;;;;;;28.58;18.92;;;18.30;99.90;;;;;;5016287;28;20061;-77
2021/09/01 11:55:08;;;;;;;28.40;17.90;;;18.30;99.90;;;;;;5016620;28;20119;-77
2021/09/01 11:57:37;;;;;;;28.60;17.98;;;18.40;99.90;;;;;;5016171;28;20080;-76
2021/09/01 12:00:08;;;;;;;28.33;15.85;;;18.40;99.90;;;;;;5051855;23;20042;-80
2021/09/01 12:02:35;;;;;;;24.40;14.18;;;18.40;99.90;;;;;;5007287;28;20097;-83
2021/09/01 12:05:02;;;;;;;27.25;15.23;;;18.50;99.90;;;;;;4999628;28;20053;-81
2021/09/01 12:07:33;;;;;;;21.92;13.90;;;18.60;99.90;;;;;;5000861;28;20089;-84
2021/09/01 12:10:03;;;;;;;22.77;12.95;;;18.70;99.90;;;;;;5001451;28;20479;-81
2021/09/01 12:12:34;;;;;;;22.13;12.10;;;18.60;99.90;;;;;;5001786;28;20514;-81
2021/09/01 12:15:11;;;;;;;25.80;12.60;;;18.60;99.90;;;;;;5001253;28;20057;-81
2021/09/01 12:17:38;;;;;;;20.95;11.52;;;18.60;99.90;;;;;;5005721;28;20058;-80
2021/09/01 12:20:06;;;;;;;23.17;12.35;;;18.50;99.90;;;;;;5001390;28;20058;-83
2021/09/01 12:22:35;;;;;;;22.13;11.30;;;18.60;99.90;;;;;;5000764;28;20153;-81
2021/09/01 12:25:06;;;;;;;21.15;12.15;;;18.60;99.90;;;;;;5001479;28;20066;-86
2021/09/01 12:27:33;;;;;;;18.45;12.02;;;18.50;99.90;;;;;;5002311;28;20061;-82
2021/09/01 12:30:00;;;;;;;19.98;12.85;;;18.50;99.90;;;;;;5001163;28;20065;-82
2021/09/01 12:32:27;;;;;;;21.90;13.27;;;18.60;99.90;;;;;;5001778;28;20110;-84
2021/09/01 12:34:55;;;;;;;21.60;13.05;;;18.60;99.90;;;;;;5000525;28;20050;-81
2021/09/01 12:37:24;;;;;;;27.20;15.27;;;18.60;99.90;;;;;;5001293;28;20061;-82
2021/09/01 12:39:54;;;;;;;27.35;16.17;;;18.70;99.90;;;;;;5000460;28;20060;-83
2021/09/01 12:42:32;;;;;;;28.30;17.45;;;18.80;99.90;;;;;;5001134;28;20140;-82
2021/09/01 12:45:01;;;;;;;29.75;16.60;;;18.90;99.90;;;;;;5001463;28;20110;-81
2021/09/01 12:47:29;;;;;;;29.98;18.08;;;19.10;99.90;;;;;;5002036;28;20145;-85
2021/09/01 12:49:58;;;;;;;38.10;20.33;;;19.10;99.90;;;;;;5002234;28;20481;-83
2021/09/01 12:52:27;;;;;;;39.08;23.35;;;19.10;99.90;;;;;;5001494;28;20146;-82
2021/09/01 12:54:58;;;;;;;40.58;23.95;;;19.10;99.90;;;;;;5001166;28;20050;-85
2021/09/01 12:57:27;;;;;;;42.38;25.92;;;19.10;99.90;;;;;;5002988;28;20084;-82
2021/09/01 12:59:55;;;;;;;44.00;26.83;;;19.10;99.90;;;;;;5002928;28;20072;-82
2021/09/01 13:02:27;;;;;;;42.38;26.52;;;19.10;99.90;;;;;;5002658;28;20394;-81
2021/09/01 13:04:55;;;;;;;50.17;27.75;;;19.10;99.90;;;;;;5001919;28;20081;-81
2021/09/01 13:07:21;;;;;;;41.67;26.55;;;19.20;99.90;;;;;;5003288;28;20054;-82
2021/09/01 13:10:02;;;;;;;39.88;27.15;;;19.20;99.90;;;;;;5006559;28;20549;-82
2021/09/01 13:12:29;;;;;;;43.67;25.85;;;19.10;99.90;;;;;;5003735;28;20107;-84
2021/09/01 13:14:56;;;;;;;40.08;25.08;;;19.10;99.90;;;;;;5002953;28;20390;-81
2021/09/01 13:17:27;;;;;;;40.75;26.50;;;18.90;99.90;;;;;;5002606;28;20084;-84
2021/09/01 13:19:59;;;;;;;39.65;25.92;;;18.60;99.90;;;;;;5001088;28;20118;-82
2021/09/01 13:22:26;;;;;;;43.88;26.63;;;18.60;99.90;;;;;;5002087;28;20050;-82
2021/09/01 13:25:16;;;;;;;40.95;24.48;;;18.50;99.90;;;;;;5004566;28;20050;-80
2021/09/01 13:27:43;;;;;;;42.58;25.13;;;18.60;99.90;;;;;;5002091;28;20066;-81
2021/09/01 13:30:12;;;;;;;34.22;24.63;;;18.60;99.90;;;;;;5002646;28;20073;-82
2021/09/01 13:32:42;;;;;;;38.60;24.70;;;18.70;99.90;;;;;;5003366;28;20046;-82
2021/09/01 13:35:09;;;;;;;36.67;23.35;;;18.60;99.90;;;;;;5001893;28;20073;-83
2021/09/01 13:37:37;;;;;;;36.13;21.95;;;18.70;99.90;;;;;;5003390;28;20457;-83